sensor_id;sensor_type;location;lat;lon;timestamp;P1;durP1;ratioP1;P2;durP2;ratioP2
60919;SDS011;59039;52.108;19.942;2023-03-24T00:00:29;26.00;;;15.30;;
60919;SDS011;59039;52.108;19.942;2023-03-24T00:05:33;27.30;;;13.70;;
60919;SDS011;59039;52.108;19.942;2023-03-24T00:08:02;28.20;;;13.80;;
60919;SDS011;59039;52.108;19.942;2023-03-24T00:10:30;25.30;;;12.90;;
60919;SDS011;59039;52.108;19.942;2023-03-24T00:12:56;26.30;;;13.40;;
60919;SDS011;59039;52.108;19.942;2023-03-24T00:15:21;26.30;;;12.90;;
60919;SDS011;59039;52.108;19.942;2023-03-24T00:17:47;21.40;;;12.30;;
60919;SDS011;59039;52.108;19.942;2023-03-24T00:22:53;29.20;;;13.80;;
60919;SDS011;59039;52.108;19.942;2023-03-24T00:25:40;26.20;;;13.80;;
60919;SDS011;59039;52.108;19.942;2023-03-24T00:28:08;29.70;;;14.30;;
60919;SDS011;59039;52.108;19.942;2023-03-24T00:30:35;27.30;;;14.60;;
60919;SDS011;59039;52.108;19.942;2023-03-24T00:33:07;33.30;;;15.40;;
60919;SDS011;59039;52.108;19.942;2023-03-24T00:35:35;27.40;;;13.50;;
60919;SDS011;59039;52.108;19.942;2023-03-24T00:38:08;28.70;;;13.90;;
60919;SDS011;59039;52.108;19.942;2023-03-24T00:40:34;30.60;;;16.50;;
60919;SDS011;59039;52.108;19.942;2023-03-24T00:43:02;29.00;;;15.40;;
60919;SDS011;59039;52.108;19.942;2023-03-24T00:45:27;24.20;;;13.90;;
60919;SDS011;59039;52.108;19.942;2023-03-24T00:47:53;27.30;;;15.40;;
60919;SDS011;59039;52.108;19.942;2023-03-24T00:50:19;25.00;;;14.00;;
60919;SDS011;59039;52.108;19.942;2023-03-24T00:52:45;24.60;;;13.90;;
60919;SDS011;59039;52.108;19.942;2023-03-24T00:55:14;24.20;;;15.20;;
60919;SDS011;59039;52.108;19.942;2023-03-24T00:57:43;30.40;;;15.60;;
60919;SDS011;59039;52.108;19.942;2023-03-24T01:00:10;28.30;;;15.60;;
60919;SDS011;59039;52.108;19.942;2023-03-24T01:02:57;28.10;;;15.50;;
60919;SDS011;59039;52.108;19.942;2023-03-24T01:05:25;28.10;;;16.10;;
60919;SDS011;59039;52.108;19.942;2023-03-24T01:07:52;31.00;;;17.40;;
60919;SDS011;59039;52.108;19.942;2023-03-24T01:10:20;28.80;;;16.80;;
60919;SDS011;59039;52.108;19.942;2023-03-24T01:12:49;30.90;;;18.60;;
60919;SDS011;59039;52.108;19.942;2023-03-24T01:15:17;28.10;;;17.00;;
60919;SDS011;59039;52.108;19.942;2023-03-24T01:17:44;28.80;;;16.60;;
60919;SDS011;59039;52.108;19.942;2023-03-24T01:20:30;26.80;;;14.60;;
60919;SDS011;59039;52.108;19.942;2023-03-24T01:23:03;21.10;;;12.70;;
60919;SDS011;59039;52.108;19.942;2023-03-24T01:25:31;22.20;;;12.90;;
60919;SDS011;59039;52.108;19.942;2023-03-24T01:28:20;21.10;;;12.10;;
60919;SDS011;59039;52.108;19.942;2023-03-24T01:33:56;21.20;;;13.40;;
60919;SDS011;59039;52.108;19.942;2023-03-24T01:36:23;26.30;;;14.40;;
60919;SDS011;59039;52.108;19.942;2023-03-24T01:39:09;30.00;;;14.80;;
60919;SDS011;59039;52.108;19.942;2023-03-24T01:44:40;29.40;;;14.60;;
60919;SDS011;59039;52.108;19.942;2023-03-24T01:47:10;35.30;;;14.80;;
60919;SDS011;59039;52.108;19.942;2023-03-24T01:49:53;23.60;;;13.50;;
60919;SDS011;59039;52.108;19.942;2023-03-24T01:52:28;23.70;;;13.20;;
60919;SDS011;59039;52.108;19.942;2023-03-24T01:57:50;24.70;;;13.00;;
60919;SDS011;59039;52.108;19.942;2023-03-24T02:00:24;19.50;;;11.40;;
60919;SDS011;59039;52.108;19.942;2023-03-24T02:02:52;25.70;;;12.80;;
60919;SDS011;59039;52.108;19.942;2023-03-24T02:05:22;23.00;;;12.90;;
60919;SDS011;59039;52.108;19.942;2023-03-24T02:07:55;22.10;;;13.50;;
60919;SDS011;59039;52.108;19.942;2023-03-24T02:10:29;24.70;;;12.40;;
60919;SDS011;59039;52.108;19.942;2023-03-24T02:13:03;21.60;;;12.80;;
60919;SDS011;59039;52.108;19.942;2023-03-24T02:15:31;23.50;;;13.10;;
60919;SDS011;59039;52.108;19.942;2023-03-24T02:18:18;21.60;;;12.10;;
60919;SDS011;59039;52.108;19.942;2023-03-24T02:29:00;24.70;;;13.50;;
60919;SDS011;59039;52.108;19.942;2023-03-24T02:31:41;26.00;;;13.90;;
60919;SDS011;59039;52.108;19.942;2023-03-24T02:53:50;22.60;;;12.10;;
60919;SDS011;59039;52.108;19.942;2023-03-24T02:56:45;22.90;;;12.60;;
60919;SDS011;59039;52.108;19.942;2023-03-24T02:59:15;28.10;;;13.70;;
60919;SDS011;59039;52.108;19.942;2023-03-24T03:01:52;23.50;;;13.40;;
60919;SDS011;59039;52.108;19.942;2023-03-24T03:04:29;24.90;;;14.10;;
60919;SDS011;59039;52.108;19.942;2023-03-24T03:06:59;25.20;;;14.20;;
60919;SDS011;59039;52.108;19.942;2023-03-24T03:09:31;24.90;;;14.60;;
60919;SDS011;59039;52.108;19.942;2023-03-24T03:11:59;27.80;;;14.30;;
60919;SDS011;59039;52.108;19.942;2023-03-24T03:14:27;25.40;;;14.80;;
60919;SDS011;59039;52.108;19.942;2023-03-24T03:17:21;21.90;;;13.80;;
60919;SDS011;59039;52.108;19.942;2023-03-24T03:20:11;24.20;;;13.10;;
60919;SDS011;59039;52.108;19.942;2023-03-24T03:22:41;20.30;;;13.30;;
60919;SDS011;59039;52.108;19.942;2023-03-24T03:25:32;22.60;;;13.70;;
60919;SDS011;59039;52.108;19.942;2023-03-24T03:28:02;25.10;;;13.50;;
60919;SDS011;59039;52.108;19.942;2023-03-24T03:30:41;30.60;;;15.00;;
60919;SDS011;59039;52.108;19.942;2023-03-24T03:33:13;30.60;;;16.00;;
60919;SDS011;59039;52.108;19.942;2023-03-24T03:35:46;38.10;;;18.30;;
60919;SDS011;59039;52.108;19.942;2023-03-24T03:41:33;58.80;;;22.20;;
60919;SDS011;59039;52.108;19.942;2023-03-24T03:44:00;64.10;;;24.10;;
60919;SDS011;59039;52.108;19.942;2023-03-24T03:46:35;37.80;;;17.10;;
60919;SDS011;59039;52.108;19.942;2023-03-24T03:49:02;38.60;;;18.90;;
60919;SDS011;59039;52.108;19.942;2023-03-24T03:54:09;38.60;;;17.40;;
60919;SDS011;59039;52.108;19.942;2023-03-24T03:56:36;30.70;;;15.00;;
60919;SDS011;59039;52.108;19.942;2023-03-24T03:59:03;28.60;;;14.10;;
60919;SDS011;59039;52.108;19.942;2023-03-24T04:01:31;32.90;;;16.70;;
60919;SDS011;59039;52.108;19.942;2023-03-24T04:16:49;52.70;;;22.40;;
60919;SDS011;59039;52.108;19.942;2023-03-24T04:22:38;49.90;;;21.20;;
60919;SDS011;59039;52.108;19.942;2023-03-24T04:25:43;43.00;;;18.80;;
60919;SDS011;59039;52.108;19.942;2023-03-24T04:36:27;33.70;;;18.50;;
60919;SDS011;59039;52.108;19.942;2023-03-24T04:38:59;35.00;;;18.20;;
60919;SDS011;59039;52.108;19.942;2023-03-24T04:44:33;55.80;;;24.30;;
60919;SDS011;59039;52.108;19.942;2023-03-24T04:47:01;52.60;;;22.80;;
60919;SDS011;59039;52.108;19.942;2023-03-24T04:49:29;52.40;;;24.30;;
60919;SDS011;59039;52.108;19.942;2023-03-24T04:51:54;57.20;;;26.00;;
60919;SDS011;59039;52.108;19.942;2023-03-24T04:54:20;56.10;;;25.40;;
60919;SDS011;59039;52.108;19.942;2023-03-24T04:56:53;41.80;;;21.00;;
60919;SDS011;59039;52.108;19.942;2023-03-24T04:59:31;43.40;;;22.10;;
60919;SDS011;59039;52.108;19.942;2023-03-24T05:02:00;47.20;;;22.00;;
60919;SDS011;59039;52.108;19.942;2023-03-24T05:04:28;46.30;;;21.90;;
60919;SDS011;59039;52.108;19.942;2023-03-24T05:06:54;41.50;;;20.50;;
60919;SDS011;59039;52.108;19.942;2023-03-24T05:09:27;41.40;;;19.90;;
60919;SDS011;59039;52.108;19.942;2023-03-24T05:11:54;42.50;;;21.40;;
60919;SDS011;59039;52.108;19.942;2023-03-24T05:14:20;42.00;;;20.70;;
60919;SDS011;59039;52.108;19.942;2023-03-24T05:17:05;37.00;;;21.20;;
60919;SDS011;59039;52.108;19.942;2023-03-24T05:19:31;37.30;;;19.20;;
60919;SDS011;59039;52.108;19.942;2023-03-24T05:22:00;40.20;;;20.30;;
60919;SDS011;59039;52.108;19.942;2023-03-24T05:24:25;35.90;;;20.00;;
60919;SDS011;59039;52.108;19.942;2023-03-24T05:26:54;32.40;;;18.80;;
60919;SDS011;59039;52.108;19.942;2023-03-24T05:29:19;42.30;;;19.70;;
60919;SDS011;59039;52.108;19.942;2023-03-24T05:31:47;40.20;;;20.30;;
60919;SDS011;59039;52.108;19.942;2023-03-24T05:34:13;39.60;;;19.50;;
60919;SDS011;59039;52.108;19.942;2023-03-24T05:36:44;31.50;;;17.90;;
60919;SDS011;59039;52.108;19.942;2023-03-24T05:39:09;33.80;;;18.50;;
60919;SDS011;59039;52.108;19.942;2023-03-24T05:41:35;31.30;;;17.80;;
60919;SDS011;59039;52.108;19.942;2023-03-24T05:44:09;30.10;;;18.10;;
60919;SDS011;59039;52.108;19.942;2023-03-24T05:46:34;38.10;;;18.90;;
60919;SDS011;59039;52.108;19.942;2023-03-24T05:49:03;38.60;;;18.80;;
60919;SDS011;59039;52.108;19.942;2023-03-24T05:51:28;38.10;;;19.10;;
60919;SDS011;59039;52.108;19.942;2023-03-24T05:53:53;38.20;;;20.00;;
60919;SDS011;59039;52.108;19.942;2023-03-24T05:56:19;38.70;;;21.30;;
60919;SDS011;59039;52.108;19.942;2023-03-24T05:58:44;42.10;;;22.70;;
60919;SDS011;59039;52.108;19.942;2023-03-24T06:01:10;45.50;;;25.70;;
60919;SDS011;59039;52.108;19.942;2023-03-24T06:03:36;47.50;;;28.70;;
60919;SDS011;59039;52.108;19.942;2023-03-24T06:06:02;48.50;;;30.30;;
60919;SDS011;59039;52.108;19.942;2023-03-24T06:08:27;58.20;;;33.40;;
60919;SDS011;59039;52.108;19.942;2023-03-24T06:10:56;47.20;;;28.60;;
60919;SDS011;59039;52.108;19.942;2023-03-24T06:13:41;37.30;;;23.50;;
60919;SDS011;59039;52.108;19.942;2023-03-24T06:16:07;40.20;;;24.80;;
60919;SDS011;59039;52.108;19.942;2023-03-24T06:18:32;47.60;;;24.50;;
60919;SDS011;59039;52.108;19.942;2023-03-24T06:21:01;39.20;;;21.80;;
60919;SDS011;59039;52.108;19.942;2023-03-24T06:23:26;39.70;;;20.90;;
60919;SDS011;59039;52.108;19.942;2023-03-24T06:25:56;37.30;;;20.30;;
60919;SDS011;59039;52.108;19.942;2023-03-24T06:28:22;36.10;;;21.10;;
60919;SDS011;59039;52.108;19.942;2023-03-24T06:30:50;35.50;;;19.80;;
60919;SDS011;59039;52.108;19.942;2023-03-24T06:33:36;31.60;;;17.90;;
60919;SDS011;59039;52.108;19.942;2023-03-24T06:36:11;35.00;;;18.40;;
60919;SDS011;59039;52.108;19.942;2023-03-24T06:38:38;34.30;;;19.80;;
60919;SDS011;59039;52.108;19.942;2023-03-24T06:41:04;33.50;;;20.30;;
60919;SDS011;59039;52.108;19.942;2023-03-24T06:43:37;32.60;;;17.70;;
60919;SDS011;59039;52.108;19.942;2023-03-24T06:46:03;31.30;;;17.70;;
60919;SDS011;59039;52.108;19.942;2023-03-24T06:48:29;27.90;;;17.00;;
60919;SDS011;59039;52.108;19.942;2023-03-24T06:50:54;22.90;;;14.80;;
60919;SDS011;59039;52.108;19.942;2023-03-24T06:53:40;27.40;;;14.80;;
60919;SDS011;59039;52.108;19.942;2023-03-24T06:56:08;22.40;;;14.20;;
60919;SDS011;59039;52.108;19.942;2023-03-24T06:58:34;22.70;;;14.60;;
60919;SDS011;59039;52.108;19.942;2023-03-24T07:00:59;23.10;;;14.70;;
60919;SDS011;59039;52.108;19.942;2023-03-24T07:03:25;27.40;;;15.60;;
60919;SDS011;59039;52.108;19.942;2023-03-24T07:05:53;31.70;;;14.50;;
60919;SDS011;59039;52.108;19.942;2023-03-24T07:08:32;19.50;;;13.20;;
60919;SDS011;59039;52.108;19.942;2023-03-24T07:11:01;26.20;;;14.70;;
60919;SDS011;59039;52.108;19.942;2023-03-24T07:16:06;22.20;;;14.30;;
60919;SDS011;59039;52.108;19.942;2023-03-24T07:18:31;26.00;;;16.30;;
60919;SDS011;59039;52.108;19.942;2023-03-24T07:20:57;31.80;;;17.00;;
60919;SDS011;59039;52.108;19.942;2023-03-24T07:23:23;28.00;;;18.20;;
60919;SDS011;59039;52.108;19.942;2023-03-24T07:25:48;28.60;;;16.50;;
60919;SDS011;59039;52.108;19.942;2023-03-24T07:28:13;29.40;;;16.60;;
60919;SDS011;59039;52.108;19.942;2023-03-24T07:30:39;24.50;;;15.20;;
60919;SDS011;59039;52.108;19.942;2023-03-24T07:33:05;25.30;;;15.40;;
60919;SDS011;59039;52.108;19.942;2023-03-24T07:35:32;21.20;;;13.80;;
60919;SDS011;59039;52.108;19.942;2023-03-24T07:38:00;23.10;;;14.40;;
60919;SDS011;59039;52.108;19.942;2023-03-24T07:40:26;25.80;;;14.40;;
60919;SDS011;59039;52.108;19.942;2023-03-24T07:42:57;28.10;;;17.10;;
60919;SDS011;59039;52.108;19.942;2023-03-24T07:45:29;33.90;;;19.30;;
60919;SDS011;59039;52.108;19.942;2023-03-24T07:48:07;38.00;;;23.00;;
60919;SDS011;59039;52.108;19.942;2023-03-24T07:50:32;34.50;;;22.00;;
60919;SDS011;59039;52.108;19.942;2023-03-24T07:53:00;26.10;;;16.10;;
60919;SDS011;59039;52.108;19.942;2023-03-24T07:55:31;23.90;;;14.40;;
60919;SDS011;59039;52.108;19.942;2023-03-24T07:58:07;22.30;;;13.20;;
60919;SDS011;59039;52.108;19.942;2023-03-24T08:00:35;29.60;;;13.10;;
60919;SDS011;59039;52.108;19.942;2023-03-24T08:03:02;27.50;;;14.80;;
60919;SDS011;59039;52.108;19.942;2023-03-24T08:05:30;25.90;;;13.90;;
60919;SDS011;59039;52.108;19.942;2023-03-24T08:07:58;23.00;;;13.70;;
60919;SDS011;59039;52.108;19.942;2023-03-24T08:10:25;22.40;;;13.60;;
60919;SDS011;59039;52.108;19.942;2023-03-24T08:12:53;23.40;;;13.50;;
60919;SDS011;59039;52.108;19.942;2023-03-24T08:15:23;19.20;;;12.90;;
60919;SDS011;59039;52.108;19.942;2023-03-24T08:17:52;24.40;;;13.00;;
60919;SDS011;59039;52.108;19.942;2023-03-24T08:20:27;25.30;;;13.50;;
60919;SDS011;59039;52.108;19.942;2023-03-24T08:22:53;19.20;;;13.10;;
60919;SDS011;59039;52.108;19.942;2023-03-24T08:25:21;24.10;;;12.40;;
60919;SDS011;59039;52.108;19.942;2023-03-24T08:27:49;21.90;;;12.20;;
60919;SDS011;59039;52.108;19.942;2023-03-24T08:30:16;19.60;;;11.90;;
60919;SDS011;59039;52.108;19.942;2023-03-24T08:32:53;17.60;;;10.20;;
60919;SDS011;59039;52.108;19.942;2023-03-24T08:35:22;17.10;;;10.40;;
60919;SDS011;59039;52.108;19.942;2023-03-24T08:37:51;18.80;;;10.90;;
60919;SDS011;59039;52.108;19.942;2023-03-24T08:40:18;18.60;;;10.70;;
60919;SDS011;59039;52.108;19.942;2023-03-24T08:42:49;19.70;;;9.70;;
60919;SDS011;59039;52.108;19.942;2023-03-24T08:45:23;18.60;;;10.20;;
60919;SDS011;59039;52.108;19.942;2023-03-24T08:47:52;17.70;;;10.10;;
60919;SDS011;59039;52.108;19.942;2023-03-24T08:50:22;15.90;;;9.60;;
60919;SDS011;59039;52.108;19.942;2023-03-24T08:52:52;17.80;;;10.40;;
60919;SDS011;59039;52.108;19.942;2023-03-24T08:55:19;16.70;;;10.00;;
60919;SDS011;59039;52.108;19.942;2023-03-24T08:57:46;17.20;;;10.30;;
60919;SDS011;59039;52.108;19.942;2023-03-24T09:00:12;16.10;;;10.30;;
60919;SDS011;59039;52.108;19.942;2023-03-24T09:02:42;19.20;;;9.60;;
60919;SDS011;59039;52.108;19.942;2023-03-24T09:05:11;16.50;;;8.60;;
60919;SDS011;59039;52.108;19.942;2023-03-24T09:07:43;16.30;;;8.70;;
60919;SDS011;59039;52.108;19.942;2023-03-24T09:10:19;15.20;;;7.90;;
60919;SDS011;59039;52.108;19.942;2023-03-24T09:12:44;13.80;;;8.60;;
60919;SDS011;59039;52.108;19.942;2023-03-24T09:15:12;14.50;;;9.50;;
60919;SDS011;59039;52.108;19.942;2023-03-24T09:17:38;13.90;;;8.70;;
60919;SDS011;59039;52.108;19.942;2023-03-24T09:20:07;12.10;;;8.50;;
60919;SDS011;59039;52.108;19.942;2023-03-24T09:22:42;17.80;;;9.20;;
60919;SDS011;59039;52.108;19.942;2023-03-24T09:25:11;18.10;;;9.40;;
60919;SDS011;59039;52.108;19.942;2023-03-24T09:27:38;15.20;;;9.10;;
60919;SDS011;59039;52.108;19.942;2023-03-24T09:30:03;15.40;;;8.20;;
60919;SDS011;59039;52.108;19.942;2023-03-24T09:32:29;14.80;;;8.90;;
60919;SDS011;59039;52.108;19.942;2023-03-24T09:34:55;25.40;;;10.20;;
60919;SDS011;59039;52.108;19.942;2023-03-24T09:37:20;15.50;;;8.30;;
60919;SDS011;59039;52.108;19.942;2023-03-24T09:39:46;12.90;;;7.80;;
60919;SDS011;59039;52.108;19.942;2023-03-24T09:42:18;13.10;;;8.10;;
60919;SDS011;59039;52.108;19.942;2023-03-24T09:44:49;16.60;;;8.30;;
60919;SDS011;59039;52.108;19.942;2023-03-24T09:47:41;14.40;;;8.70;;
60919;SDS011;59039;52.108;19.942;2023-03-24T09:50:21;12.50;;;7.30;;
60919;SDS011;59039;52.108;19.942;2023-03-24T09:53:03;13.80;;;7.20;;
60919;SDS011;59039;52.108;19.942;2023-03-24T09:55:33;14.60;;;8.20;;
60919;SDS011;59039;52.108;19.942;2023-03-24T10:00:55;12.70;;;6.70;;
60919;SDS011;59039;52.108;19.942;2023-03-24T10:03:21;13.10;;;7.10;;
60919;SDS011;59039;52.108;19.942;2023-03-24T10:08:40;10.90;;;7.00;;
60919;SDS011;59039;52.108;19.942;2023-03-24T10:22:12;15.20;;;8.30;;
60919;SDS011;59039;52.108;19.942;2023-03-24T10:25:12;16.20;;;7.70;;
60919;SDS011;59039;52.108;19.942;2023-03-24T10:30:38;14.10;;;7.80;;
60919;SDS011;59039;52.108;19.942;2023-03-24T10:33:11;13.60;;;8.60;;
60919;SDS011;59039;52.108;19.942;2023-03-24T10:35:38;11.90;;;6.70;;
60919;SDS011;59039;52.108;19.942;2023-03-24T10:38:19;12.00;;;7.70;;
60919;SDS011;59039;52.108;19.942;2023-03-24T10:40:47;10.60;;;7.40;;
60919;SDS011;59039;52.108;19.942;2023-03-24T10:43:14;11.90;;;8.10;;
60919;SDS011;59039;52.108;19.942;2023-03-24T10:45:42;17.10;;;8.80;;
60919;SDS011;59039;52.108;19.942;2023-03-24T10:48:13;18.30;;;8.10;;
60919;SDS011;59039;52.108;19.942;2023-03-24T10:50:57;19.20;;;9.40;;
60919;SDS011;59039;52.108;19.942;2023-03-24T10:53:23;20.80;;;9.40;;
60919;SDS011;59039;52.108;19.942;2023-03-24T10:55:51;17.30;;;8.10;;
60919;SDS011;59039;52.108;19.942;2023-03-24T10:58:27;20.70;;;10.70;;
60919;SDS011;59039;52.108;19.942;2023-03-24T11:00:54;11.90;;;6.70;;
60919;SDS011;59039;52.108;19.942;2023-03-24T11:03:25;16.20;;;7.80;;
60919;SDS011;59039;52.108;19.942;2023-03-24T11:06:00;15.20;;;7.60;;
60919;SDS011;59039;52.108;19.942;2023-03-24T11:08:37;14.40;;;8.30;;
60919;SDS011;59039;52.108;19.942;2023-03-24T11:13:55;9.90;;;6.80;;
60919;SDS011;59039;52.108;19.942;2023-03-24T11:16:26;20.50;;;8.10;;
60919;SDS011;59039;52.108;19.942;2023-03-24T11:18:56;23.40;;;9.10;;
60919;SDS011;59039;52.108;19.942;2023-03-24T11:21:25;18.00;;;8.60;;
60919;SDS011;59039;52.108;19.942;2023-03-24T11:23:55;15.50;;;7.60;;
60919;SDS011;59039;52.108;19.942;2023-03-24T11:26:30;13.00;;;7.60;;
60919;SDS011;59039;52.108;19.942;2023-03-24T11:28:59;14.60;;;7.60;;
60919;SDS011;59039;52.108;19.942;2023-03-24T11:31:38;13.10;;;7.80;;
60919;SDS011;59039;52.108;19.942;2023-03-24T11:34:15;13.70;;;8.00;;
60919;SDS011;59039;52.108;19.942;2023-03-24T11:36:47;12.10;;;7.10;;
60919;SDS011;59039;52.108;19.942;2023-03-24T11:39:22;13.60;;;7.30;;
60919;SDS011;59039;52.108;19.942;2023-03-24T11:41:58;13.60;;;7.50;;
60919;SDS011;59039;52.108;19.942;2023-03-24T11:44:24;12.10;;;7.20;;
60919;SDS011;59039;52.108;19.942;2023-03-24T11:46:57;12.30;;;6.20;;
60919;SDS011;59039;52.108;19.942;2023-03-24T11:49:29;11.60;;;5.60;;
60919;SDS011;59039;52.108;19.942;2023-03-24T11:51:55;12.60;;;6.30;;
60919;SDS011;59039;52.108;19.942;2023-03-24T11:54:29;9.00;;;5.60;;
60919;SDS011;59039;52.108;19.942;2023-03-24T11:57:03;11.70;;;6.20;;
60919;SDS011;59039;52.108;19.942;2023-03-24T11:59:53;10.80;;;5.40;;
60919;SDS011;59039;52.108;19.942;2023-03-24T12:02:46;7.30;;;4.80;;
60919;SDS011;59039;52.108;19.942;2023-03-24T12:05:30;8.30;;;5.00;;
60919;SDS011;59039;52.108;19.942;2023-03-24T12:08:26;12.70;;;4.80;;
60919;SDS011;59039;52.108;19.942;2023-03-24T12:13:36;19.20;;;7.60;;
60919;SDS011;59039;52.108;19.942;2023-03-24T12:18:56;6.90;;;4.40;;
60919;SDS011;59039;52.108;19.942;2023-03-24T12:30:23;10.10;;;4.30;;
60919;SDS011;59039;52.108;19.942;2023-03-24T12:35:56;6.20;;;3.80;;
60919;SDS011;59039;52.108;19.942;2023-03-24T12:44:22;8.70;;;5.30;;
60919;SDS011;59039;52.108;19.942;2023-03-24T12:55:34;6.70;;;4.00;;
60919;SDS011;59039;52.108;19.942;2023-03-24T12:58:37;8.90;;;5.10;;
60919;SDS011;59039;52.108;19.942;2023-03-24T13:04:03;9.30;;;4.70;;
60919;SDS011;59039;52.108;19.942;2023-03-24T13:07:10;8.90;;;4.40;;
60919;SDS011;59039;52.108;19.942;2023-03-24T13:12:43;12.10;;;6.40;;
60919;SDS011;59039;52.108;19.942;2023-03-24T13:15:36;15.50;;;7.00;;
60919;SDS011;59039;52.108;19.942;2023-03-24T13:20:45;12.90;;;6.80;;
60919;SDS011;59039;52.108;19.942;2023-03-24T13:26:17;9.20;;;5.10;;
60919;SDS011;59039;52.108;19.942;2023-03-24T13:29:12;8.80;;;5.00;;
60919;SDS011;59039;52.108;19.942;2023-03-24T13:34:25;10.80;;;5.60;;
60919;SDS011;59039;52.108;19.942;2023-03-24T13:37:01;9.80;;;4.90;;
60919;SDS011;59039;52.108;19.942;2023-03-24T13:39:29;11.00;;;6.10;;
60919;SDS011;59039;52.108;19.942;2023-03-24T13:41:57;13.70;;;6.40;;
60919;SDS011;59039;52.108;19.942;2023-03-24T13:44:44;18.20;;;9.50;;
60919;SDS011;59039;52.108;19.942;2023-03-24T13:47:16;10.30;;;6.50;;
60919;SDS011;59039;52.108;19.942;2023-03-24T13:49:54;13.20;;;6.10;;
60919;SDS011;59039;52.108;19.942;2023-03-24T13:52:26;10.40;;;5.70;;
60919;SDS011;59039;52.108;19.942;2023-03-24T13:54:56;14.10;;;5.90;;
60919;SDS011;59039;52.108;19.942;2023-03-24T13:57:23;12.50;;;6.70;;
60919;SDS011;59039;52.108;19.942;2023-03-24T14:00:06;12.20;;;5.80;;
60919;SDS011;59039;52.108;19.942;2023-03-24T14:02:43;20.60;;;7.20;;
60919;SDS011;59039;52.108;19.942;2023-03-24T14:10:36;11.60;;;5.90;;
60919;SDS011;59039;52.108;19.942;2023-03-24T14:15:56;14.30;;;6.70;;
60919;SDS011;59039;52.108;19.942;2023-03-24T14:26:05;9.40;;;5.80;;
60919;SDS011;59039;52.108;19.942;2023-03-24T14:33:55;10.80;;;6.80;;
60919;SDS011;59039;52.108;19.942;2023-03-24T14:36:33;7.30;;;5.40;;
60919;SDS011;59039;52.108;19.942;2023-03-24T14:41:57;13.40;;;6.60;;
60919;SDS011;59039;52.108;19.942;2023-03-24T14:49:59;16.50;;;9.60;;
60919;SDS011;59039;52.108;19.942;2023-03-24T14:52:43;19.00;;;9.80;;
60919;SDS011;59039;52.108;19.942;2023-03-24T14:55:14;18.90;;;9.60;;
60919;SDS011;59039;52.108;19.942;2023-03-24T14:57:43;31.70;;;12.80;;
60919;SDS011;59039;52.108;19.942;2023-03-24T15:05:34;18.80;;;9.50;;
60919;SDS011;59039;52.108;19.942;2023-03-24T15:08:16;14.70;;;8.10;;
60919;SDS011;59039;52.108;19.942;2023-03-24T15:10:45;13.90;;;8.10;;
60919;SDS011;59039;52.108;19.942;2023-03-24T15:16:02;12.50;;;7.90;;
60919;SDS011;59039;52.108;19.942;2023-03-24T15:18:32;11.90;;;8.10;;
60919;SDS011;59039;52.108;19.942;2023-03-24T15:20:58;13.30;;;8.60;;
60919;SDS011;59039;52.108;19.942;2023-03-24T15:23:27;17.00;;;7.80;;
60919;SDS011;59039;52.108;19.942;2023-03-24T15:25:54;14.00;;;8.20;;
60919;SDS011;59039;52.108;19.942;2023-03-24T15:28:20;15.40;;;8.10;;
60919;SDS011;59039;52.108;19.942;2023-03-24T15:30:49;11.80;;;7.40;;
60919;SDS011;59039;52.108;19.942;2023-03-24T15:33:15;13.00;;;6.90;;
60919;SDS011;59039;52.108;19.942;2023-03-24T15:35:41;14.00;;;8.00;;
60919;SDS011;59039;52.108;19.942;2023-03-24T15:38:16;16.30;;;8.10;;
60919;SDS011;59039;52.108;19.942;2023-03-24T15:40:55;14.90;;;8.40;;
60919;SDS011;59039;52.108;19.942;2023-03-24T15:43:27;14.90;;;9.10;;
60919;SDS011;59039;52.108;19.942;2023-03-24T15:45:54;16.00;;;8.40;;
60919;SDS011;59039;52.108;19.942;2023-03-24T15:48:24;17.50;;;7.70;;
60919;SDS011;59039;52.108;19.942;2023-03-24T15:53:55;11.20;;;8.00;;
60919;SDS011;59039;52.108;19.942;2023-03-24T15:56:29;15.60;;;9.40;;
60919;SDS011;59039;52.108;19.942;2023-03-24T16:01:29;18.80;;;11.30;;
60919;SDS011;59039;52.108;19.942;2023-03-24T16:03:55;21.40;;;12.10;;
60919;SDS011;59039;52.108;19.942;2023-03-24T16:06:25;23.40;;;12.90;;
60919;SDS011;59039;52.108;19.942;2023-03-24T16:08:57;20.10;;;12.80;;
60919;SDS011;59039;52.108;19.942;2023-03-24T16:11:24;19.90;;;11.90;;
60919;SDS011;59039;52.108;19.942;2023-03-24T16:13:53;26.10;;;15.10;;
60919;SDS011;59039;52.108;19.942;2023-03-24T16:16:22;26.00;;;16.30;;
60919;SDS011;59039;52.108;19.942;2023-03-24T16:18:51;27.70;;;16.70;;
60919;SDS011;59039;52.108;19.942;2023-03-24T16:21:18;28.70;;;18.30;;
60919;SDS011;59039;52.108;19.942;2023-03-24T16:23:46;36.40;;;17.70;;
60919;SDS011;59039;52.108;19.942;2023-03-24T16:26:24;31.50;;;17.00;;
60919;SDS011;59039;52.108;19.942;2023-03-24T16:29:22;20.60;;;12.60;;
60919;SDS011;59039;52.108;19.942;2023-03-24T16:31:50;17.30;;;10.20;;
60919;SDS011;59039;52.108;19.942;2023-03-24T16:34:20;21.20;;;12.40;;
60919;SDS011;59039;52.108;19.942;2023-03-24T16:36:46;23.50;;;12.90;;
60919;SDS011;59039;52.108;19.942;2023-03-24T16:39:17;27.90;;;13.40;;
60919;SDS011;59039;52.108;19.942;2023-03-24T16:41:50;26.50;;;14.30;;
60919;SDS011;59039;52.108;19.942;2023-03-24T16:44:19;23.70;;;12.70;;
60919;SDS011;59039;52.108;19.942;2023-03-24T16:46:46;21.30;;;13.40;;
60919;SDS011;59039;52.108;19.942;2023-03-24T16:49:14;24.70;;;13.50;;
60919;SDS011;59039;52.108;19.942;2023-03-24T16:51:42;26.30;;;15.60;;
60919;SDS011;59039;52.108;19.942;2023-03-24T16:54:10;36.50;;;21.10;;
60919;SDS011;59039;52.108;19.942;2023-03-24T16:56:36;44.30;;;22.70;;
60919;SDS011;59039;52.108;19.942;2023-03-24T16:59:02;40.20;;;20.70;;
60919;SDS011;59039;52.108;19.942;2023-03-24T17:01:37;26.10;;;17.20;;
60919;SDS011;59039;52.108;19.942;2023-03-24T17:06:53;38.40;;;21.50;;
60919;SDS011;59039;52.108;19.942;2023-03-24T17:09:27;34.00;;;19.30;;
60919;SDS011;59039;52.108;19.942;2023-03-24T17:11:58;26.20;;;15.10;;
60919;SDS011;59039;52.108;19.942;2023-03-24T17:14:29;31.70;;;15.70;;
60919;SDS011;59039;52.108;19.942;2023-03-24T17:17:00;25.80;;;14.80;;
60919;SDS011;59039;52.108;19.942;2023-03-24T17:19:25;26.70;;;15.70;;
60919;SDS011;59039;52.108;19.942;2023-03-24T17:22:00;32.20;;;18.30;;
60919;SDS011;59039;52.108;19.942;2023-03-24T17:24:28;28.60;;;17.90;;
60919;SDS011;59039;52.108;19.942;2023-03-24T17:26:57;34.00;;;19.50;;
60919;SDS011;59039;52.108;19.942;2023-03-24T17:29:22;40.60;;;21.70;;
60919;SDS011;59039;52.108;19.942;2023-03-24T17:32:08;36.70;;;19.20;;
60919;SDS011;59039;52.108;19.942;2023-03-24T17:34:34;34.30;;;19.90;;
60919;SDS011;59039;52.108;19.942;2023-03-24T17:37:00;33.20;;;18.10;;
60919;SDS011;59039;52.108;19.942;2023-03-24T17:39:26;26.80;;;16.20;;
60919;SDS011;59039;52.108;19.942;2023-03-24T17:41:53;29.20;;;17.90;;
60919;SDS011;59039;52.108;19.942;2023-03-24T17:44:19;26.70;;;17.50;;
60919;SDS011;59039;52.108;19.942;2023-03-24T17:46:45;25.10;;;16.10;;
60919;SDS011;59039;52.108;19.942;2023-03-24T17:49:33;23.00;;;14.80;;